Latest Coastal Weather Observations for Lihou Reef Lighthouse

IDQ60701

Issued at 2:05 pm EST Saturday 30 August 2014 (issued every 10 minutes, with the page automatically refreshed every 10 minutes)

About coastal observations | Map of coastal stations | Coastal observations for QLD | Marine services | Other Formats
Station Details ID: 200880 Name: LIHOU REEF LIGHTHOUSE Lat: -17.13 Lon: 152.15 Height: 0.0 m
Data from the previous 72 hours. | See also: Recent months for locations in Queensland
Date/Time
EST
Temp

°C
Wind Pressure Rain
since 9am
mm
Weather Cloud Vis
km
Sea
Height
m
Swell
Dir
 
Speed
knots
Gust
knots
hPa Trend Height
m
Period
s
Dir
30/02:00pm 22.1 SE 20 27 1013.7 - - - - - - - - -
30/01:30pm 21.3 SE 12 17 1014.6 - - - - - - - - -
30/01:00pm 20.8 SSE 17 21 1015.4 - - - - - - - - -
30/12:30pm 22.1 SSE 19 23 1015.6 - - - - - - - - -
30/12:00pm 21.8 SSE 17 23 1015.8 - - - - - - - - -
30/11:30am 22.6 SE 15 21 1015.6 - - - - - - - - -
30/11:00am 22.9 SE 16 20 1015.5 - - - - - - - - -
30/10:30am 22.9 SE 16 20 1015.8 - - - - - - - - -
30/10:00am 23.5 ESE 17 19 1015.7 - - - - - - - - -
30/09:30am 23.7 ESE 18 21 1015.5 - - - - - - - - -
30/09:00am 23.7 ESE 18 21 1015.8 - - - - - - - - -
30/08:30am 23.8 ESE 18 21 1015.9 - - - - - - - - -
30/08:00am 23.7 SE 17 21 1016.2 - - - - - - - - -
30/07:30am 23.3 SE 17 20 1016.1 - - - - - - - - -
30/07:00am 23.3 SE 16 20 1016.0 - - - - - - - - -
30/06:30am 23.2 SE 17 20 1015.6 - - - - - - - - -
30/06:00am 23.0 SE 17 20 1015.4 - - - - - - - - -
30/05:30am 23.2 SE 17 20 1015.3 - - - - - - - - -
30/05:00am 23.2 SE 16 20 1015.1 - - - - - - - - -
30/04:30am 23.1 SE 18 20 1014.7 - - - - - - - - -
30/04:00am 23.2 SE 18 21 1014.7 - - - - - - - - -
30/03:30am 23.1 SE 17 20 1014.7 - - - - - - - - -
30/03:00am 23.1 SE 18 21 1014.8 - - - - - - - - -
30/02:30am 23.3 SE 17 19 1015.0 - - - - - - - - -
30/02:00am 23.3 SE 17 20 1015.2 - - - - - - - - -
30/01:30am 23.2 SE 19 22 1015.1 - - - - - - - - -
30/01:00am 23.3 SE 19 21 1015.3 - - - - - - - - -
30/12:30am 22.1 SSE 20 23 1015.4 - - - - - - - - -
30/12:23am 22.6 SSE 20 23 1015.5 - - - - - - - - -
30/12:00am 22.1 SE 17 20 1016.0 - - - - - - - - -
 
Date/Time
EST
Temp

°C
Wind Pressure Rain
since 9am
mm
Weather Cloud Vis
km
Sea
Height
m
Swell
Dir
 
Speed
knots
Gust
knots
hPa Trend Height
m
Period
s
Dir
29/11:30pm 22.6 SE 19 24 1016.0 - - - - - - - - -
29/11:00pm 22.0 ESE 17 22 1016.4 - - - - - - - - -
29/10:30pm 23.0 SE 20 25 1016.3 - - - - - - - - -
29/10:00pm 23.3 SE 20 23 1016.4 - - - - - - - - -
29/09:30pm 23.5 SE 18 21 1016.5 - - - - - - - - -
29/09:00pm 23.4 SE 19 22 1016.2 - - - - - - - - -
29/08:30pm 23.5 SE 20 25 1015.9 - - - - - - - - -
29/08:00pm 23.4 SE 20 25 1015.8 - - - - - - - - -
29/07:30pm 23.5 SE 22 27 1015.6 - - - - - - - - -
29/07:00pm 23.4 SE 21 25 1015.4 - - - - - - - - -
29/06:30pm 23.4 SE 21 24 1015.0 - - - - - - - - -
29/06:00pm 23.3 SE 22 26 1014.5 - - - - - - - - -
29/05:30pm 23.3 SSE 22 25 1014.1 - - - - - - - - -
29/05:00pm 23.5 SSE 21 25 1014.0 - - - - - - - - -
29/04:30pm 23.5 SSE 21 24 1014.0 - - - - - - - - -
29/04:00pm 23.4 SSE 20 24 1014.1 - - - - - - - - -
29/03:30pm 23.5 SSE 20 23 1014.0 - - - - - - - - -
29/03:00pm 23.3 SE 19 22 1014.0 - - - - - - - - -
29/02:30pm 23.5 SE 20 23 1014.1 - - - - - - - - -
29/02:00pm 23.4 SE 20 24 1014.2 - - - - - - - - -
29/01:30pm 23.4 SE 20 23 1014.6 - - - - - - - - -
29/01:00pm 23.3 SE 18 22 1015.0 - - - - - - - - -
29/12:30pm 23.2 SE 18 21 1015.3 - - - - - - - - -
29/12:00pm 23.2 SE 20 23 1015.5 - - - - - - - - -
29/11:30am 23.0 SE 19 21 1016.0 - - - - - - - - -
29/11:00am 23.0 SE 20 24 1016.4 - - - - - - - - -
29/10:30am 22.8 SE 18 23 1016.5 - - - - - - - - -
29/10:00am 22.9 SE 19 23 1016.8 - - - - - - - - -
29/09:30am 22.6 SSE 20 23 1016.9 - - - - - - - - -
29/09:00am 22.4 SE 18 22 1017.1 - - - - - - - - -
29/08:30am 22.4 SE 18 22 1016.9 - - - - - - - - -
29/08:00am 22.2 SSE 18 20 1016.8 - - - - - - - - -
29/07:30am 22.2 SSE 16 20 1016.6 - - - - - - - - -
29/07:00am 21.8 SSE 16 19 1016.4 - - - - - - - - -
29/06:30am 21.6 SSE 18 22 1016.2 - - - - - - - - -
29/06:00am 21.6 SSE 17 22 1015.8 - - - - - - - - -
29/05:30am 21.5 SSE 16 21 1015.8 - - - - - - - - -
29/05:00am 21.6 SSE 15 20 1015.9 - - - - - - - - -
29/04:30am 21.5 SSE 15 19 1015.6 - - - - - - - - -
29/04:00am 21.4 SSE 15 19 1015.7 - - - - - - - - -
29/03:30am 21.6 SSE 16 19 1015.8 - - - - - - - - -
29/03:00am 21.8 S 16 19 1015.7 - - - - - - - - -
29/02:30am 21.8 SSE 16 19 1016.0 - - - - - - - - -
29/02:00am 21.9 SSE 14 18 1016.3 - - - - - - - - -
29/01:30am 21.9 SSE 15 20 1016.3 - - - - - - - - -
29/01:00am 22.0 SSE 15 20 1016.5 - - - - - - - - -
29/12:30am 22.1 SSE 16 19 1016.9 - - - - - - - - -
29/12:00am 22.1 SSE 16 19 1017.1 - - - - - - - - -
 
Date/Time
EST
Temp

°C
Wind Pressure Rain
since 9am
mm
Weather Cloud Vis
km
Sea
Height
m
Swell
Dir
 
Speed
knots
Gust
knots
hPa Trend Height
m
Period
s
Dir
28/11:30pm 22.3 SSE 16 18 1017.4 - - - - - - - - -
28/11:00pm 22.4 SSE 16 20 1017.5 - - - - - - - - -
28/10:30pm 22.5 SSE 16 20 1017.4 - - - - - - - - -
28/10:00pm 22.6 SSE 17 22 1017.2 - - - - - - - - -
28/09:30pm 22.7 S 17 24 1017.2 - - - - - - - - -
28/09:00pm 22.8 S 17 20 1017.3 - - - - - - - - -
28/08:30pm 22.8 SSE 19 24 1017.0 - - - - - - - - -
28/08:00pm 22.7 S 18 22 1016.8 - - - - - - - - -
28/07:30pm 22.8 S 17 21 1016.7 - - - - - - - - -
28/07:00pm 22.8 S 18 22 1016.2 - - - - - - - - -
28/06:30pm 22.8 S 17 22 1015.9 - - - - - - - - -
28/06:00pm 22.9 S 17 21 1015.5 - - - - - - - - -
28/05:30pm 22.9 S 17 23 1015.1 - - - - - - - - -
28/05:00pm 22.9 S 17 22 1014.9 - - - - - - - - -
28/04:30pm 22.9 S 17 20 1014.6 - - - - - - - - -
28/04:00pm 22.9 S 17 20 1014.5 - - - - - - - - -
28/03:30pm 23.0 S 16 19 1014.5 - - - - - - - - -
28/03:00pm 23.1 S 16 19 1014.5 - - - - - - - - -
28/02:30pm 23.1 S 16 20 1014.7 - - - - - - - - -
28/02:00pm 23.1 SSE 16 18 1014.9 - - - - - - - - -
28/01:30pm 23.1 S 16 20 1015.0 - - - - - - - - -
28/01:00pm 23.2 SSE 15 19 1015.3 - - - - - - - - -
28/12:30pm 23.1 S 16 19 1015.5 - - - - - - - - -
28/12:00pm 23.1 SSE 15 18 1015.9 - - - - - - - - -
28/11:30am 23.1 SSE 15 19 1016.4 - - - - - - - - -
28/11:00am 23.1 SSE 16 19 1016.7 - - - - - - - - -
28/10:30am 23.1 SSE 15 19 1016.9 - - - - - - - - -
28/10:00am 23.1 SSE 15 20 1017.2 - - - - - - - - -
28/09:30am 23.1 SSE 16 19 1017.2 - - - - - - - - -
28/09:00am 23.1 S 15 19 1017.3 - - - - - - - - -
28/08:30am 23.1 SSE 14 17 1017.2 - - - - - - - - -
28/08:00am 23.0 SSE 15 19 1017.0 - - - - - - - - -
28/07:30am 22.9 SSE 14 17 1016.8 - - - - - - - - -
28/07:00am 22.6 SSE 15 18 1016.5 - - - - - - - - -
28/06:30am 22.6 SSE 15 18 1016.2 - - - - - - - - -
28/06:00am 22.2 SSE 14 18 1015.9 - - - - - - - - -
28/05:30am 22.1 SSE 12 15 1015.7 - - - - - - - - -
28/05:00am 22.3 SSE 13 17 1015.4 - - - - - - - - -
28/04:30am 22.2 S 12 16 1015.2 - - - - - - - - -
28/04:00am 22.1 SSE 11 14 1015.1 - - - - - - - - -
28/03:30am 22.1 S 13 17 1015.2 - - - - - - - - -
28/03:00am 22.1 S 12 15 1015.2 - - - - - - - - -
28/02:30am 22.0 SSE 11 14 1015.3 - - - - - - - - -
28/02:00am 22.1 S 12 14 1015.4 - - - - - - - - -
28/01:30am 22.2 SSE 11 15 1015.7 - - - - - - - - -
28/01:00am 22.3 SSE 9 13 1015.8 - - - - - - - - -
28/12:30am 22.4 SSE 9 12 1016.1 - - - - - - - - -
28/12:00am 22.5 SSE 11 13 1016.3 - - - - - - - - -
 
Date/Time
EST
Temp

°C
Wind Pressure Rain
since 9am
mm
Weather Cloud Vis
km
Sea
Height
m
Swell
Dir
 
Speed
knots
Gust
knots
hPa Trend Height
m
Period
s
Dir
27/11:30pm 22.8 SSE 11 14 1016.5 - - - - - - - - -
27/11:00pm 22.8 SE 9 11 1016.6 - - - - - - - - -
27/10:30pm 22.8 SSE 9 13 1016.7 - - - - - - - - -
27/10:00pm 22.8 SSE 10 14 1016.6 - - - - - - - - -
27/09:30pm 22.8 SSE 10 12 1016.5 - - - - - - - - -
27/09:00pm 22.8 SSE 10 12 1016.3 - - - - - - - - -
27/08:30pm 22.9 SSE 8 11 1016.4 - - - - - - - - -
27/08:00pm 23.0 SSE 10 12 1016.1 - - - - - - - - -
27/07:30pm 22.9 SSE 9 12 1015.6 - - - - - - - - -
27/07:00pm 22.9 SSE 9 11 1015.1 - - - - - - - - -
27/06:30pm 22.9 SSE 10 12 1014.8 - - - - - - - - -
27/06:00pm 22.8 SSE 10 13 1014.6 - - - - - - - - -
27/05:30pm 22.9 SSE 11 13 1014.1 - - - - - - - - -
27/05:00pm 23.1 SSE 12 14 1013.8 - - - - - - - - -
27/04:30pm 22.9 S 12 15 1013.6 - - - - - - - - -
27/04:00pm 23.1 SSE 13 15 1013.4 - - - - - - - - -
27/03:30pm 23.1 SSE 12 16 1013.4 - - - - - - - - -
27/03:00pm 23.0 SSE 12 15 1013.3 - - - - - - - - -
27/02:30pm 23.3 S 12 15 1013.3 - - - - - - - - -

Other Formats:

Comma delimited format used in spreadsheet applications
http://www.bom.gov.au/fwo/IDQ60701/IDQ60701.94293.axf

JavaScript Object Notation format (JSON) in row-major order
http://www.bom.gov.au/fwo/IDQ60701/IDQ60701.94293.json